PWSweather.com
Personal Weather Stations
Station Observations
KOHAVON11
Long Road Station, Avon, OH 44011

Long Road StationAvon, OH 44011

Lat: 41.437, Lon: -82.0477

Elevation: 686

Station Type: Davis Vantage Pro2

http://www.avon-weather.com

Latest ConditionsUpdated 10:08:10 AM EDT Friday, Oct 31, 2014
Currently Today's Max Today's Min Today's Average
Temperature 44.8°F7.1°C 44.8°F7.1°C 42.5°F5.8°C 43.6°F6.4°C
Dew Point 37.3°F2.9°C 38.0°F3.3°C 36.7°F2.6°C 37.3°F2.9°C
Winds 2.0 mph S3.2 kmh S 6.0 mph SSW9.7 kmh SSW - 2.5 mph 4.0 kmh
Wind Gusts 7.0 mph11.3 kmh 8.0 mph12.9 kmh - -
Humidity 75% 83% 75% 78%
Pressure 29.92 in1013.2 mb 30.03 in1016.9 mb 29.92 in1013.2 mb -
Hour Temp Dew Point Humidity Winds Wind Gusts Pressure Precip Precip Rate Daily Precip Total
10:08 AM 44.8°F7.1°C 37.3°F2.9°C 75% 2.0 mph S3.2 kmh S 7.0 mph11.3 kmh 29.92 in1013.2 mb 0.00 in0.0 mm 0.00 in/hr0.0 mm/hr 0.00 in0.0 mm
10:03 AM 44.7°F7.1°C 37.5°F3.1°C 76% 3.0 mph SW4.8 kmh SW 7.0 mph11.3 kmh 29.92 in1013.2 mb 0.00 in0.0 mm 0.00 in/hr0.0 mm/hr 0.00 in0.0 mm
09:58 AM 44.5°F6.9°C 37.3°F2.9°C 76% 5.0 mph S8.0 kmh S 7.0 mph11.3 kmh 29.92 in1013.2 mb 0.00 in0.0 mm 0.00 in/hr0.0 mm/hr 0.00 in0.0 mm
09:53 AM 44.4°F6.9°C 37.2°F2.9°C 76% 5.0 mph S8.0 kmh S 6.0 mph9.7 kmh 29.92 in1013.2 mb 0.00 in0.0 mm 0.00 in/hr0.0 mm/hr 0.00 in0.0 mm
09:48 AM 44.3°F6.8°C 36.8°F2.7°C 75% 4.0 mph S6.4 kmh S 8.0 mph12.9 kmh 29.92 in1013.2 mb 0.00 in0.0 mm 0.00 in/hr0.0 mm/hr 0.00 in0.0 mm
09:43 AM 44.3°F6.8°C 37.1°F2.8°C 76% 3.0 mph S4.8 kmh S 8.0 mph12.9 kmh 29.92 in1013.2 mb 0.00 in0.0 mm 0.00 in/hr0.0 mm/hr 0.00 in0.0 mm
09:38 AM 44.1°F6.7°C 36.9°F2.7°C 76% 6.0 mph S9.7 kmh S 8.0 mph12.9 kmh 29.92 in1013.2 mb 0.00 in0.0 mm 0.00 in/hr0.0 mm/hr 0.00 in0.0 mm
09:33 AM 44.1°F6.7°C 36.9°F2.7°C 76% 6.0 mph S9.7 kmh S 8.0 mph12.9 kmh 29.93 in1013.5 mb 0.00 in0.0 mm 0.00 in/hr0.0 mm/hr 0.00 in0.0 mm
09:28 AM 44.0°F6.7°C 37.2°F2.9°C 77% 6.0 mph SSW9.7 kmh SSW 6.0 mph9.7 kmh 29.93 in1013.5 mb 0.00 in0.0 mm 0.00 in/hr0.0 mm/hr 0.00 in0.0 mm
09:23 AM 43.9°F6.6°C 37.1°F2.8°C 77% 4.0 mph S6.4 kmh S 6.0 mph9.7 kmh 29.93 in1013.5 mb 0.00 in0.0 mm 0.00 in/hr0.0 mm/hr 0.00 in0.0 mm
09:18 AM 43.9°F6.6°C 37.1°F2.8°C 77% 2.0 mph S3.2 kmh S 6.0 mph9.7 kmh 29.93 in1013.5 mb 0.00 in0.0 mm 0.00 in/hr0.0 mm/hr 0.00 in0.0 mm
09:13 AM 43.8°F6.6°C 37.0°F2.8°C 77% 4.0 mph SSW6.4 kmh SSW 6.0 mph9.7 kmh 29.93 in1013.5 mb 0.00 in0.0 mm 0.00 in/hr0.0 mm/hr 0.00 in0.0 mm
09:08 AM 43.7°F6.5°C 36.9°F2.7°C 77% 5.0 mph S8.0 kmh S 6.0 mph9.7 kmh 29.93 in1013.5 mb 0.00 in0.0 mm 0.00 in/hr0.0 mm/hr 0.00 in0.0 mm
09:03 AM 43.7°F6.5°C 36.9°F2.7°C 77% 5.0 mph S8.0 kmh S 6.0 mph9.7 kmh 29.93 in1013.5 mb 0.00 in0.0 mm 0.00 in/hr0.0 mm/hr 0.00 in0.0 mm
08:58 AM 43.7°F6.5°C 36.9°F2.7°C 77% 4.0 mph S6.4 kmh S 6.0 mph9.7 kmh 29.93 in1013.5 mb 0.00 in0.0 mm 0.00 in/hr0.0 mm/hr 0.00 in0.0 mm
08:53 AM 43.6°F6.4°C 36.8°F2.7°C 77% 3.0 mph S4.8 kmh S 7.0 mph11.3 kmh 29.93 in1013.5 mb 0.00 in0.0 mm 0.00 in/hr0.0 mm/hr 0.00 in0.0 mm
08:48 AM 43.6°F6.4°C 36.8°F2.7°C 77% 5.0 mph S8.0 kmh S 7.0 mph11.3 kmh 29.93 in1013.5 mb 0.00 in0.0 mm 0.00 in/hr0.0 mm/hr 0.00 in0.0 mm
08:43 AM 43.6°F6.4°C 36.8°F2.7°C 77% 4.0 mph S6.4 kmh S 7.0 mph11.3 kmh 29.93 in1013.5 mb 0.00 in0.0 mm 0.00 in/hr0.0 mm/hr 0.00 in0.0 mm
08:38 AM 43.6°F6.4°C 37.1°F2.8°C 78% 1.0 mph S1.6 kmh S 7.0 mph11.3 kmh 29.93 in1013.5 mb 0.00 in0.0 mm 0.00 in/hr0.0 mm/hr 0.00 in0.0 mm
08:33 AM 43.5°F6.4°C 37.0°F2.8°C 78% 3.0 mph S4.8 kmh S 6.0 mph9.7 kmh 29.93 in1013.5 mb 0.00 in0.0 mm 0.00 in/hr0.0 mm/hr 0.00 in0.0 mm
08:28 AM 43.5°F6.4°C 37.0°F2.8°C 78% 5.0 mph S8.0 kmh S 6.0 mph9.7 kmh 29.93 in1013.5 mb 0.00 in0.0 mm 0.00 in/hr0.0 mm/hr 0.00 in0.0 mm
08:23 AM 43.5°F6.4°C 37.0°F2.8°C 78% 3.0 mph S4.8 kmh S 7.0 mph11.3 kmh 29.93 in1013.5 mb 0.00 in0.0 mm 0.00 in/hr0.0 mm/hr 0.00 in0.0 mm
08:18 AM 43.5°F6.4°C 37.0°F2.8°C 78% 3.0 mph S4.8 kmh S 7.0 mph11.3 kmh 29.93 in1013.5 mb 0.00 in0.0 mm 0.00 in/hr0.0 mm/hr 0.00 in0.0 mm
08:13 AM 43.5°F6.4°C 37.0°F2.8°C 78% 4.0 mph S6.4 kmh S 7.0 mph11.3 kmh 29.93 in1013.5 mb 0.00 in0.0 mm 0.00 in/hr0.0 mm/hr 0.00 in0.0 mm
08:08 AM 43.5°F6.4°C 37.0°F2.8°C 78% 5.0 mph S8.0 kmh S 7.0 mph11.3 kmh 29.93 in1013.5 mb 0.00 in0.0 mm 0.00 in/hr0.0 mm/hr 0.00 in0.0 mm
08:03 AM 43.5°F6.4°C 37.4°F3.0°C 79% 4.0 mph S6.4 kmh S 7.0 mph11.3 kmh 29.93 in1013.5 mb 0.00 in0.0 mm 0.00 in/hr0.0 mm/hr 0.00 in0.0 mm
07:58 AM 43.4°F6.3°C 37.3°F2.9°C 79% 3.0 mph S4.8 kmh S 7.0 mph11.3 kmh 29.93 in1013.5 mb 0.00 in0.0 mm 0.00 in/hr0.0 mm/hr 0.00 in0.0 mm
07:53 AM 43.4°F6.3°C 37.3°F2.9°C 79% 5.0 mph SSW8.0 kmh SSW 5.0 mph8.0 kmh 29.93 in1013.5 mb 0.00 in0.0 mm 0.00 in/hr0.0 mm/hr 0.00 in0.0 mm
07:48 AM 43.4°F6.3°C 37.3°F2.9°C 79% 4.0 mph S6.4 kmh S 6.0 mph9.7 kmh 29.93 in1013.5 mb 0.00 in0.0 mm 0.00 in/hr0.0 mm/hr 0.00 in0.0 mm
07:43 AM 43.4°F6.3°C 37.3°F2.9°C 79% 4.0 mph S6.4 kmh S 6.0 mph9.7 kmh 29.93 in1013.5 mb 0.00 in0.0 mm 0.00 in/hr0.0 mm/hr 0.00 in0.0 mm
07:38 AM 43.4°F6.3°C 37.3°F2.9°C 79% 3.0 mph S4.8 kmh S 6.0 mph9.7 kmh 29.93 in1013.5 mb 0.00 in0.0 mm 0.00 in/hr0.0 mm/hr 0.00 in0.0 mm
07:33 AM 43.5°F6.4°C 37.4°F3.0°C 79% 5.0 mph S8.0 kmh S 6.0 mph9.7 kmh 29.93 in1013.5 mb 0.00 in0.0 mm 0.00 in/hr0.0 mm/hr 0.00 in0.0 mm
07:28 AM 43.5°F6.4°C 37.4°F3.0°C 79% 3.0 mph S4.8 kmh S 5.0 mph8.0 kmh 29.94 in1013.9 mb 0.00 in0.0 mm 0.00 in/hr0.0 mm/hr 0.00 in0.0 mm
07:23 AM 43.5°F6.4°C 37.4°F3.0°C 79% 4.0 mph SSW6.4 kmh SSW 6.0 mph9.7 kmh 29.94 in1013.9 mb 0.00 in0.0 mm 0.00 in/hr0.0 mm/hr 0.00 in0.0 mm
07:18 AM 43.5°F6.4°C 37.4°F3.0°C 79% 4.0 mph S6.4 kmh S 6.0 mph9.7 kmh 29.94 in1013.9 mb 0.00 in0.0 mm 0.00 in/hr0.0 mm/hr 0.00 in0.0 mm
07:13 AM 43.5°F6.4°C 37.4°F3.0°C 79% 2.0 mph S3.2 kmh S 7.0 mph11.3 kmh 29.94 in1013.9 mb 0.00 in0.0 mm 0.00 in/hr0.0 mm/hr 0.00 in0.0 mm
07:08 AM 43.5°F6.4°C 37.4°F3.0°C 79% 3.0 mph S4.8 kmh S 7.0 mph11.3 kmh 29.94 in1013.9 mb 0.00 in0.0 mm 0.00 in/hr0.0 mm/hr 0.00 in0.0 mm
07:03 AM 43.5°F6.4°C 37.4°F3.0°C 79% 2.0 mph S3.2 kmh S 7.0 mph11.3 kmh 29.94 in1013.9 mb 0.00 in0.0 mm 0.00 in/hr0.0 mm/hr 0.00 in0.0 mm
06:58 AM 43.4°F6.3°C 37.6°F3.1°C 80% 5.0 mph SSW8.0 kmh SSW 7.0 mph11.3 kmh 29.95 in1014.2 mb 0.00 in0.0 mm 0.00 in/hr0.0 mm/hr 0.00 in0.0 mm
06:53 AM 43.4°F6.3°C 37.6°F3.1°C 80% 4.0 mph SSW6.4 kmh SSW 5.0 mph8.0 kmh 29.95 in1014.2 mb 0.00 in0.0 mm 0.00 in/hr0.0 mm/hr 0.00 in0.0 mm
06:48 AM 43.4°F6.3°C 37.6°F3.1°C 80% 2.0 mph SSW3.2 kmh SSW 5.0 mph8.0 kmh 29.95 in1014.2 mb 0.00 in0.0 mm 0.00 in/hr0.0 mm/hr 0.00 in0.0 mm
06:43 AM 43.2°F6.2°C 37.4°F3.0°C 80% 4.0 mph S6.4 kmh S 5.0 mph8.0 kmh 29.95 in1014.2 mb 0.00 in0.0 mm 0.00 in/hr0.0 mm/hr 0.00 in0.0 mm
06:38 AM 43.2°F6.2°C 37.4°F3.0°C 80% 2.0 mph S3.2 kmh S 5.0 mph8.0 kmh 29.95 in1014.2 mb 0.00 in0.0 mm 0.00 in/hr0.0 mm/hr 0.00 in0.0 mm
06:33 AM 43.2°F6.2°C 37.4°F3.0°C 80% 3.0 mph S4.8 kmh S 5.0 mph8.0 kmh 29.95 in1014.2 mb 0.00 in0.0 mm 0.00 in/hr0.0 mm/hr 0.00 in0.0 mm
06:28 AM 43.2°F6.2°C 37.4°F3.0°C 80% 3.0 mph S4.8 kmh S 5.0 mph8.0 kmh 29.95 in1014.2 mb 0.00 in0.0 mm 0.00 in/hr0.0 mm/hr 0.00 in0.0 mm
06:23 AM 43.1°F6.2°C 37.3°F2.9°C 80% 2.0 mph S3.2 kmh S 5.0 mph8.0 kmh 29.95 in1014.2 mb 0.00 in0.0 mm 0.00 in/hr0.0 mm/hr 0.00 in0.0 mm
06:18 AM 43.1°F6.2°C 37.3°F2.9°C 80% 3.0 mph S4.8 kmh S 5.0 mph8.0 kmh 29.95 in1014.2 mb 0.00 in0.0 mm 0.00 in/hr0.0 mm/hr 0.00 in0.0 mm
06:13 AM 43.2°F6.2°C 37.4°F3.0°C 80% 3.0 mph S4.8 kmh S 5.0 mph8.0 kmh 29.95 in1014.2 mb 0.00 in0.0 mm 0.00 in/hr0.0 mm/hr 0.00 in0.0 mm
06:08 AM 43.3°F6.3°C 37.5°F3.1°C 80% 4.0 mph S6.4 kmh S 5.0 mph8.0 kmh 29.95 in1014.2 mb 0.00 in0.0 mm 0.00 in/hr0.0 mm/hr 0.00 in0.0 mm
06:03 AM 43.3°F6.3°C 37.5°F3.1°C 80% 3.0 mph S4.8 kmh S 6.0 mph9.7 kmh 29.96 in1014.6 mb 0.00 in0.0 mm 0.00 in/hr0.0 mm/hr 0.00 in0.0 mm
05:58 AM 43.4°F6.3°C 37.3°F2.9°C 79% 3.0 mph S4.8 kmh S 6.0 mph9.7 kmh 29.95 in1014.2 mb 0.00 in0.0 mm 0.00 in/hr0.0 mm/hr 0.00 in0.0 mm
05:53 AM 43.4°F6.3°C 37.3°F2.9°C 79% 3.0 mph S4.8 kmh S 6.0 mph9.7 kmh 29.96 in1014.6 mb 0.00 in0.0 mm 0.00 in/hr0.0 mm/hr 0.00 in0.0 mm
05:48 AM 43.5°F6.4°C 37.4°F3.0°C 79% 3.0 mph S4.8 kmh S 6.0 mph9.7 kmh 29.95 in1014.2 mb 0.00 in0.0 mm 0.00 in/hr0.0 mm/hr 0.00 in0.0 mm
05:43 AM 43.5°F6.4°C 37.4°F3.0°C 79% 4.0 mph S6.4 kmh S 5.0 mph8.0 kmh 29.96 in1014.6 mb 0.00 in0.0 mm 0.00 in/hr0.0 mm/hr 0.00 in0.0 mm
05:38 AM 43.5°F6.4°C 37.4°F3.0°C 79% 4.0 mph S6.4 kmh S 5.0 mph8.0 kmh 29.96 in1014.6 mb 0.00 in0.0 mm 0.00 in/hr0.0 mm/hr 0.00 in0.0 mm
05:33 AM 43.6°F6.4°C 37.5°F3.1°C 79% 4.0 mph S6.4 kmh S 5.0 mph8.0 kmh 29.96 in1014.6 mb 0.00 in0.0 mm 0.00 in/hr0.0 mm/hr 0.00 in0.0 mm
05:28 AM 43.6°F6.4°C 37.5°F3.1°C 79% 3.0 mph S4.8 kmh S 5.0 mph8.0 kmh 29.96 in1014.6 mb 0.00 in0.0 mm 0.00 in/hr0.0 mm/hr 0.00 in0.0 mm
05:23 AM 43.7°F6.5°C 37.6°F3.1°C 79% 3.0 mph S4.8 kmh S 5.0 mph8.0 kmh 29.96 in1014.6 mb 0.00 in0.0 mm 0.00 in/hr0.0 mm/hr 0.00 in0.0 mm
05:18 AM 43.7°F6.5°C 37.2°F2.9°C 78% 3.0 mph S4.8 kmh S 5.0 mph8.0 kmh 29.96 in1014.6 mb 0.00 in0.0 mm 0.00 in/hr0.0 mm/hr 0.00 in0.0 mm
05:13 AM 43.8°F6.6°C 37.3°F2.9°C 78% 1.0 mph SSW1.6 kmh SSW 5.0 mph8.0 kmh 29.97 in1014.9 mb 0.00 in0.0 mm 0.00 in/hr0.0 mm/hr 0.00 in0.0 mm
05:08 AM 43.8°F6.6°C 37.3°F2.9°C 78% 2.0 mph SSW3.2 kmh SSW 5.0 mph8.0 kmh 29.96 in1014.6 mb 0.00 in0.0 mm 0.00 in/hr0.0 mm/hr 0.00 in0.0 mm
05:03 AM 43.8°F6.6°C 37.3°F2.9°C 78% 3.0 mph SSW4.8 kmh SSW 3.0 mph4.8 kmh 29.97 in1014.9 mb 0.00 in0.0 mm 0.00 in/hr0.0 mm/hr 0.00 in0.0 mm
04:58 AM 43.8°F6.6°C 37.3°F2.9°C 78% 1.0 mph SW1.6 kmh SW 3.0 mph4.8 kmh 29.97 in1014.9 mb 0.00 in0.0 mm 0.00 in/hr0.0 mm/hr 0.00 in0.0 mm
04:53 AM 43.9°F6.6°C 37.4°F3.0°C 78% 1.0 mph SW1.6 kmh SW 3.0 mph4.8 kmh 29.97 in1014.9 mb 0.00 in0.0 mm 0.00 in/hr0.0 mm/hr 0.00 in0.0 mm
04:48 AM 43.9°F6.6°C 37.4°F3.0°C 78% 1.0 mph SW1.6 kmh SW 3.0 mph4.8 kmh 29.97 in1014.9 mb 0.00 in0.0 mm 0.00 in/hr0.0 mm/hr 0.00 in0.0 mm
04:43 AM 44.0°F6.7°C 37.2°F2.9°C 77% Calm Calm 7.0 mph11.3 kmh 29.97 in1014.9 mb 0.00 in0.0 mm 0.00 in/hr0.0 mm/hr 0.00 in0.0 mm
04:38 AM 44.1°F6.7°C 36.9°F2.7°C 76% 2.0 mph SW3.2 kmh SW 7.0 mph11.3 kmh 29.97 in1014.9 mb 0.00 in0.0 mm 0.00 in/hr0.0 mm/hr 0.00 in0.0 mm
04:33 AM 44.2°F6.8°C 37.0°F2.8°C 76% 2.0 mph SW3.2 kmh SW 7.0 mph11.3 kmh 29.97 in1014.9 mb 0.00 in0.0 mm 0.00 in/hr0.0 mm/hr 0.00 in0.0 mm
04:28 AM 44.2°F6.8°C 37.0°F2.8°C 76% 4.0 mph S6.4 kmh S 7.0 mph11.3 kmh 29.97 in1014.9 mb 0.00 in0.0 mm 0.00 in/hr0.0 mm/hr 0.00 in0.0 mm
04:23 AM 44.2°F6.8°C 37.0°F2.8°C 76% 3.0 mph SSW4.8 kmh SSW 6.0 mph9.7 kmh 29.97 in1014.9 mb 0.00 in0.0 mm 0.00 in/hr0.0 mm/hr 0.00 in0.0 mm
04:18 AM 44.2°F6.8°C 37.0°F2.8°C 76% 4.0 mph SSW6.4 kmh SSW 6.0 mph9.7 kmh 29.98 in1015.2 mb 0.00 in0.0 mm 0.00 in/hr0.0 mm/hr 0.00 in0.0 mm
04:13 AM 44.2°F6.8°C 37.0°F2.8°C 76% 3.0 mph SW4.8 kmh SW 6.0 mph9.7 kmh 29.98 in1015.2 mb 0.00 in0.0 mm 0.00 in/hr0.0 mm/hr 0.00 in0.0 mm
04:08 AM 44.2°F6.8°C 37.0°F2.8°C 76% 3.0 mph SSW4.8 kmh SSW 6.0 mph9.7 kmh 29.98 in1015.2 mb 0.00 in0.0 mm 0.00 in/hr0.0 mm/hr 0.00 in0.0 mm
04:03 AM 44.2°F6.8°C 37.0°F2.8°C 76% 4.0 mph S6.4 kmh S 6.0 mph9.7 kmh 29.98 in1015.2 mb 0.00 in0.0 mm 0.00 in/hr0.0 mm/hr 0.00 in0.0 mm
03:58 AM 44.2°F6.8°C 37.4°F3.0°C 77% 6.0 mph S9.7 kmh S 7.0 mph11.3 kmh 29.98 in1015.2 mb 0.00 in0.0 mm 0.00 in/hr0.0 mm/hr 0.00 in0.0 mm
03:53 AM 44.3°F6.8°C 37.1°F2.8°C 76% 2.0 mph SSW3.2 kmh SSW 7.0 mph11.3 kmh 29.98 in1015.2 mb 0.00 in0.0 mm 0.00 in/hr0.0 mm/hr 0.00 in0.0 mm
03:48 AM 44.3°F6.8°C 36.8°F2.7°C 75% 3.0 mph S4.8 kmh S 7.0 mph11.3 kmh 29.98 in1015.2 mb 0.00 in0.0 mm 0.00 in/hr0.0 mm/hr 0.00 in0.0 mm
03:43 AM 44.3°F6.8°C 36.8°F2.7°C 75% 4.0 mph SSW6.4 kmh SSW 7.0 mph11.3 kmh 29.99 in1015.6 mb 0.00 in0.0 mm 0.00 in/hr0.0 mm/hr 0.00 in0.0 mm
03:38 AM 44.2°F6.8°C 36.7°F2.6°C 75% 4.0 mph SW6.4 kmh SW 6.0 mph9.7 kmh 29.99 in1015.6 mb 0.00 in0.0 mm 0.00 in/hr0.0 mm/hr 0.00 in0.0 mm
03:33 AM 44.2°F6.8°C 36.7°F2.6°C 75% 3.0 mph SSW4.8 kmh SSW 5.0 mph8.0 kmh 29.99 in1015.6 mb 0.00 in0.0 mm 0.00 in/hr0.0 mm/hr 0.00 in0.0 mm
03:28 AM 44.1°F6.7°C 36.9°F2.7°C 76% 2.0 mph SSW3.2 kmh SSW 5.0 mph8.0 kmh 29.99 in1015.6 mb 0.00 in0.0 mm 0.00 in/hr0.0 mm/hr 0.00 in0.0 mm
03:23 AM 44.1°F6.7°C 36.9°F2.7°C 76% 2.0 mph SW3.2 kmh SW 4.0 mph6.4 kmh 29.99 in1015.6 mb 0.00 in0.0 mm 0.00 in/hr0.0 mm/hr 0.00 in0.0 mm
03:18 AM 44.1°F6.7°C 37.3°F2.9°C 77% Calm Calm 3.0 mph4.8 kmh 29.99 in1015.6 mb 0.00 in0.0 mm 0.00 in/hr0.0 mm/hr 0.00 in0.0 mm
03:13 AM 44.1°F6.7°C 37.3°F2.9°C 77% 3.0 mph SSW4.8 kmh SSW 3.0 mph4.8 kmh 29.99 in1015.6 mb 0.00 in0.0 mm 0.00 in/hr0.0 mm/hr 0.00 in0.0 mm
03:08 AM 44.1°F6.7°C 37.3°F2.9°C 77% Calm Calm 3.0 mph4.8 kmh 29.99 in1015.6 mb 0.00 in0.0 mm 0.00 in/hr0.0 mm/hr 0.00 in0.0 mm
03:03 AM 44.0°F6.7°C 37.2°F2.9°C 77% 2.0 mph SW3.2 kmh SW 3.0 mph4.8 kmh 29.99 in1015.6 mb 0.00 in0.0 mm 0.00 in/hr0.0 mm/hr 0.00 in0.0 mm
02:58 AM 43.9°F6.6°C 37.4°F3.0°C 78% 2.0 mph SSW3.2 kmh SSW 2.0 mph3.2 kmh 29.99 in1015.6 mb 0.00 in0.0 mm 0.00 in/hr0.0 mm/hr 0.00 in0.0 mm
02:53 AM 43.9°F6.6°C 37.4°F3.0°C 78% 2.0 mph S3.2 kmh S 2.0 mph3.2 kmh 30.00 in1015.9 mb 0.00 in0.0 mm 0.00 in/hr0.0 mm/hr 0.00 in0.0 mm
02:48 AM 43.9°F6.6°C 37.4°F3.0°C 78% Calm Calm 1.0 mph1.6 kmh 30.00 in1015.9 mb 0.00 in0.0 mm 0.00 in/hr0.0 mm/hr 0.00 in0.0 mm
02:43 AM 44.0°F6.7°C 37.5°F3.1°C 78% 1.0 mph SSW1.6 kmh SSW 3.0 mph4.8 kmh 30.00 in1015.9 mb 0.00 in0.0 mm 0.00 in/hr0.0 mm/hr 0.00 in0.0 mm
02:38 AM 44.0°F6.7°C 37.2°F2.9°C 77% 2.0 mph S3.2 kmh S 3.0 mph4.8 kmh 30.00 in1015.9 mb 0.00 in0.0 mm 0.00 in/hr0.0 mm/hr 0.00 in0.0 mm
02:33 AM 44.0°F6.7°C 37.2°F2.9°C 77% 1.0 mph SSW1.6 kmh SSW 5.0 mph8.0 kmh 30.00 in1015.9 mb 0.00 in0.0 mm 0.00 in/hr0.0 mm/hr 0.00 in0.0 mm
02:28 AM 44.0°F6.7°C 37.2°F2.9°C 77% 1.0 mph SW1.6 kmh SW 5.0 mph8.0 kmh 30.00 in1015.9 mb 0.00 in0.0 mm 0.00 in/hr0.0 mm/hr 0.00 in0.0 mm
02:23 AM 43.9°F6.6°C 37.4°F3.0°C 78% 2.0 mph S3.2 kmh S 5.0 mph8.0 kmh 30.00 in1015.9 mb 0.00 in0.0 mm 0.00 in/hr0.0 mm/hr 0.00 in0.0 mm
02:18 AM 43.9°F6.6°C 37.4°F3.0°C 78% 1.0 mph S1.6 kmh S 5.0 mph8.0 kmh 30.00 in1015.9 mb 0.00 in0.0 mm 0.00 in/hr0.0 mm/hr 0.00 in0.0 mm
02:13 AM 44.0°F6.7°C 37.5°F3.1°C 78% 1.0 mph S1.6 kmh S 3.0 mph4.8 kmh 30.00 in1015.9 mb 0.00 in0.0 mm 0.00 in/hr0.0 mm/hr 0.00 in0.0 mm
02:08 AM 43.9°F6.6°C 37.4°F3.0°C 78% 2.0 mph SSE3.2 kmh SSE 3.0 mph4.8 kmh 30.01 in1016.3 mb 0.00 in0.0 mm 0.00 in/hr0.0 mm/hr 0.00 in0.0 mm
02:03 AM 43.7°F6.5°C 37.6°F3.1°C 79% 2.0 mph S3.2 kmh S 3.0 mph4.8 kmh 30.01 in1016.3 mb 0.00 in0.0 mm 0.00 in/hr0.0 mm/hr 0.00 in0.0 mm
01:58 AM 43.6°F6.4°C 37.8°F3.2°C 80% 1.0 mph SSW1.6 kmh SSW 3.0 mph4.8 kmh 30.01 in1016.3 mb 0.00 in0.0 mm 0.00 in/hr0.0 mm/hr 0.00 in0.0 mm
01:53 AM 43.5°F6.4°C 37.7°F3.2°C 80% Calm Calm 3.0 mph4.8 kmh 30.01 in1016.3 mb 0.00 in0.0 mm 0.00 in/hr0.0 mm/hr 0.00 in0.0 mm
01:48 AM 43.5°F6.4°C 37.7°F3.2°C 80% 2.0 mph SSW3.2 kmh SSW 3.0 mph4.8 kmh 30.01 in1016.3 mb 0.00 in0.0 mm 0.00 in/hr0.0 mm/hr 0.00 in0.0 mm
01:43 AM 43.4°F6.3°C 37.6°F3.1°C 80% Calm Calm 2.0 mph3.2 kmh 30.01 in1016.3 mb 0.00 in0.0 mm 0.00 in/hr0.0 mm/hr 0.00 in0.0 mm
01:38 AM 43.5°F6.4°C 37.7°F3.2°C 80% Calm Calm 1.0 mph1.6 kmh 30.01 in1016.3 mb 0.00 in0.0 mm 0.00 in/hr0.0 mm/hr 0.00 in0.0 mm
01:33 AM 43.4°F6.3°C 37.6°F3.1°C 80% Calm Calm 1.0 mph1.6 kmh 30.02 in1016.6 mb 0.00 in0.0 mm 0.00 in/hr0.0 mm/hr 0.00 in0.0 mm
01:28 AM 43.4°F6.3°C 37.6°F3.1°C 80% 1.0 mph SSW1.6 kmh SSW 1.0 mph1.6 kmh 30.02 in1016.6 mb 0.00 in0.0 mm 0.00 in/hr0.0 mm/hr 0.00 in0.0 mm
01:23 AM 43.4°F6.3°C 37.6°F3.1°C 80% Calm Calm 2.0 mph3.2 kmh 30.02 in1016.6 mb 0.00 in0.0 mm 0.00 in/hr0.0 mm/hr 0.00 in0.0 mm
01:18 AM 43.3°F6.3°C 37.5°F3.1°C 80% Calm Calm 3.0 mph4.8 kmh 30.02 in1016.6 mb 0.00 in0.0 mm 0.00 in/hr0.0 mm/hr 0.00 in0.0 mm
01:13 AM 43.3°F6.3°C 37.5°F3.1°C 80% Calm Calm 3.0 mph4.8 kmh 30.02 in1016.6 mb 0.00 in0.0 mm 0.00 in/hr0.0 mm/hr 0.00 in0.0 mm
01:08 AM 43.2°F6.2°C 37.4°F3.0°C 80% Calm Calm 3.0 mph4.8 kmh 30.02 in1016.6 mb 0.00 in0.0 mm 0.00 in/hr0.0 mm/hr 0.00 in0.0 mm
01:03 AM 43.1°F6.2°C 37.3°F2.9°C 80% 1.0 mph S1.6 kmh S 3.0 mph4.8 kmh 30.02 in1016.6 mb 0.00 in0.0 mm 0.00 in/hr0.0 mm/hr 0.00 in0.0 mm
12:58 AM 43.0°F6.1°C 37.5°F3.1°C 81% Calm Calm -- 30.02 in1016.6 mb 0.00 in0.0 mm 0.00 in/hr0.0 mm/hr 0.00 in0.0 mm
12:53 AM 43.0°F6.1°C 37.5°F3.1°C 81% Calm Calm -- 30.02 in1016.6 mb 0.00 in0.0 mm 0.00 in/hr0.0 mm/hr 0.00 in0.0 mm
12:48 AM 42.9°F6.1°C 37.4°F3.0°C 81% Calm Calm 1.0 mph1.6 kmh 30.02 in1016.6 mb 0.00 in0.0 mm 0.00 in/hr0.0 mm/hr 0.00 in0.0 mm
12:43 AM 42.8°F6.0°C 37.6°F3.1°C 82% Calm Calm -- 30.02 in1016.6 mb 0.00 in0.0 mm 0.00 in/hr0.0 mm/hr 0.00 in0.0 mm
12:38 AM 42.8°F6.0°C 37.6°F3.1°C 82% Calm Calm -- 30.03 in1016.9 mb 0.00 in0.0 mm 0.00 in/hr0.0 mm/hr 0.00 in0.0 mm
12:33 AM 42.7°F5.9°C 37.6°F3.1°C 82% Calm Calm -- 30.03 in1016.9 mb 0.00 in0.0 mm 0.00 in/hr0.0 mm/hr 0.00 in0.0 mm
12:28 AM 42.7°F5.9°C 37.9°F3.3°C 83% Calm Calm -- 30.03 in1016.9 mb 0.00 in0.0 mm 0.00 in/hr0.0 mm/hr 0.00 in0.0 mm
12:23 AM 42.8°F6.0°C 38.0°F3.3°C 83% Calm Calm -- 30.03 in1016.9 mb 0.00 in0.0 mm 0.00 in/hr0.0 mm/hr 0.00 in0.0 mm
12:18 AM 42.8°F6.0°C 37.6°F3.1°C 82% Calm Calm -- 30.03 in1016.9 mb 0.00 in0.0 mm 0.00 in/hr0.0 mm/hr 0.00 in0.0 mm
12:13 AM 42.7°F5.9°C 37.6°F3.1°C 82% Calm Calm -- 30.03 in1016.9 mb 0.00 in0.0 mm 0.00 in/hr0.0 mm/hr 0.00 in0.0 mm
12:08 AM 42.6°F5.9°C 37.5°F3.1°C 82% Calm Calm -- 30.03 in1016.9 mb 0.00 in0.0 mm 0.00 in/hr0.0 mm/hr 0.00 in0.0 mm
12:03 AM 42.5°F5.8°C 37.4°F3.0°C 82% Calm Calm -- 30.03 in1016.9 mb 0.00 in0.0 mm 0.00 in/hr0.0 mm/hr 0.00 in0.0 mm